Time;durP1;ratioP1;P1;durP2;ratioP2;P2;SDS_P1;SDS_P2;PMS_P1;PMS_P2;Temp;Humidity;BMP_temperature;BMP_pressure;BME280_temperature;BME280_humidity;BME280_pressure;Samples;Min_cycle;Max_cycle;Signal;HPM_P1;HPM_P2
2022/07/24 00:02:04;;;;;;;2.60;2.40;;;22.90;56.40;;;;;;5053115;28;20171;-61
2022/07/24 00:04:29;;;;;;;2.63;2.42;;;22.90;56.40;;;;;;5053207;28;20258;-61
2022/07/24 00:06:55;;;;;;;2.30;2.08;;;22.90;56.40;;;;;;5052800;28;20721;-60
2022/07/24 00:09:20;;;;;;;2.78;2.58;;;22.90;56.40;;;;;;5052399;28;20218;-60
2022/07/24 00:11:46;;;;;;;3.22;2.20;;;22.90;56.40;;;;;;5053009;28;20175;-60
2022/07/24 00:14:11;;;;;;;2.47;2.28;;;22.90;56.40;;;;;;5053341;28;20181;-61
2022/07/24 00:16:37;;;;;;;2.30;2.20;;;22.90;56.50;;;;;;5052744;28;20167;-61
2022/07/24 00:19:02;;;;;;;2.50;2.30;;;22.90;56.50;;;;;;5053215;28;20190;-61
2022/07/24 00:21:28;;;;;;;2.22;2.03;;;22.90;56.50;;;;;;5053214;28;20175;-61
2022/07/24 00:23:53;;;;;;;2.55;2.28;;;22.90;56.50;;;;;;5052235;28;20174;-61
2022/07/24 00:26:19;;;;;;;3.22;2.53;;;22.90;56.50;;;;;;5052910;28;20312;-61
2022/07/24 00:28:44;;;;;;;2.47;2.28;;;22.90;56.50;;;;;;5052956;28;20214;-60
2022/07/24 00:31:10;;;;;;;2.40;2.20;;;22.90;56.50;;;;;;5052519;28;20175;-60
2022/07/24 00:33:36;;;;;;;2.20;2.10;;;22.90;56.50;;;;;;5052903;28;20660;-60
2022/07/24 00:36:01;;;;;;;3.60;2.25;;;22.90;56.50;;;;;;5052798;28;20171;-60
2022/07/24 00:38:27;;;;;;;2.70;2.50;;;22.90;56.50;;;;;;5052304;28;20547;-61
2022/07/24 00:40:52;;;;;;;2.20;2.10;;;22.80;56.40;;;;;;5052724;28;20217;-61
2022/07/24 00:43:18;;;;;;;2.47;2.17;;;22.90;56.50;;;;;;5052693;28;20639;-61
2022/07/24 00:45:44;;;;;;;2.53;2.28;;;22.80;56.50;;;;;;5052013;28;20236;-61
2022/07/24 00:48:09;;;;;;;2.50;2.30;;;22.80;56.50;;;;;;5052474;28;20210;-60
2022/07/24 00:50:36;;;;;;;3.17;2.30;;;22.80;56.50;;;;;;5052817;28;20186;-60
2022/07/24 00:53:01;;;;;;;2.63;2.42;;;22.80;56.50;;;;;;5034147;28;20183;-60
2022/07/24 00:55:27;;;;;;;2.10;1.92;;;22.80;56.50;;;;;;5034522;28;20226;-60
2022/07/24 00:57:52;;;;;;;2.50;2.10;;;22.80;56.50;;;;;;5034939;28;20171;-61
2022/07/24 01:00:19;;;;;;;2.67;2.22;;;22.80;56.50;;;;;;5051949;28;20182;-61
2022/07/24 01:02:44;;;;;;;3.28;2.17;;;22.80;56.50;;;;;;5052516;28;20199;-61
2022/07/24 01:05:10;;;;;;;2.53;2.33;;;22.80;56.50;;;;;;5052512;28;20253;-61
2022/07/24 01:07:36;;;;;;;3.42;2.40;;;22.80;56.50;;;;;;5052251;28;20305;-60
2022/07/24 01:10:02;;;;;;;2.17;1.92;;;22.80;56.60;;;;;;5052530;28;20175;-60
2022/07/24 01:12:28;;;;;;;2.33;2.20;;;22.80;56.60;;;;;;5034073;28;20262;-60
2022/07/24 01:14:53;;;;;;;3.58;2.28;;;22.80;56.60;;;;;;5018080;28;20266;-60
2022/07/24 01:17:19;;;;;;;3.35;2.25;;;22.80;56.60;;;;;;5052374;28;20237;-61
2022/07/24 01:19:45;;;;;;;2.42;2.30;;;22.80;56.60;;;;;;5052793;28;20537;-61
2022/07/24 01:22:11;;;;;;;2.35;2.10;;;22.80;56.60;;;;;;5056608;28;20182;-61
2022/07/24 01:24:36;;;;;;;3.35;2.30;;;22.80;56.60;;;;;;5056340;28;20668;-61
2022/07/24 01:27:02;;;;;;;2.45;2.25;;;22.80;56.60;;;;;;5055514;28;20548;-60
2022/07/24 01:29:27;;;;;;;2.53;2.40;;;22.80;56.60;;;;;;5056211;28;20685;-60
2022/07/24 01:31:53;;;;;;;2.20;2.10;;;22.80;56.60;;;;;;5056266;28;20175;-60
2022/07/24 01:34:18;;;;;;;2.40;2.20;;;22.80;56.70;;;;;;5055557;28;20176;-60
2022/07/24 01:36:44;;;;;;;2.40;2.20;;;22.80;56.60;;;;;;5056009;28;20171;-61
2022/07/24 01:39:09;;;;;;;2.38;2.10;;;22.80;56.60;;;;;;5056141;28;20182;-60
2022/07/24 01:41:35;;;;;;;2.50;2.30;;;22.80;56.60;;;;;;5055730;28;20194;-61
2022/07/24 01:44:00;;;;;;;2.47;2.10;;;22.70;56.60;;;;;;5055789;28;20644;-61
2022/07/24 01:46:26;;;;;;;2.15;1.95;;;22.80;56.60;;;;;;5055998;28;20175;-60
2022/07/24 01:48:51;;;;;;;2.42;2.28;;;22.80;56.80;;;;;;5055055;28;20217;-60
2022/07/24 01:51:17;;;;;;;2.30;2.10;;;22.70;56.60;;;;;;5055747;28;20182;-60
2022/07/24 01:53:42;;;;;;;3.05;2.75;;;22.70;56.60;;;;;;5055544;28;20182;-60
2022/07/24 01:56:08;;;;;;;2.13;2.00;;;22.80;56.60;;;;;;5054971;28;20225;-60
2022/07/24 01:58:33;;;;;;;2.20;2.10;;;22.70;56.70;;;;;;5055877;28;20175;-60
2022/07/24 02:00:59;;;;;;;2.10;2.00;;;22.70;56.70;;;;;;5055820;28;20174;-60
2022/07/24 02:03:24;;;;;;;2.25;2.15;;;22.70;56.70;;;;;;5055008;28;20178;-60
2022/07/24 02:05:50;;;;;;;2.65;2.45;;;22.70;56.70;;;;;;5055446;28;20518;-60
2022/07/24 02:08:15;;;;;;;2.55;2.35;;;22.70;56.60;;;;;;5055489;28;20248;-60
2022/07/24 02:10:41;;;;;;;2.20;2.10;;;22.70;56.70;;;;;;5054827;28;20262;-60
2022/07/24 02:13:06;;;;;;;2.13;2.03;;;22.70;56.60;;;;;;5055616;28;20175;-60
2022/07/24 02:15:32;;;;;;;2.50;2.30;;;22.70;56.80;;;;;;5055378;28;20175;-60
2022/07/24 02:17:59;;;;;;;2.30;2.10;;;22.70;56.70;;;;;;5054886;28;20179;-61
2022/07/24 02:20:24;;;;;;;2.40;2.20;;;22.70;56.70;;;;;;5055582;28;20179;-61
2022/07/24 02:22:50;;;;;;;2.30;2.20;;;22.70;56.80;;;;;;5054333;28;20171;-61
2022/07/24 02:25:16;;;;;;;2.63;2.20;;;22.70;56.70;;;;;;5055404;28;20184;-61
2022/07/24 02:27:41;;;;;;;2.10;2.00;;;22.70;56.70;;;;;;5054992;28;20199;-60
2022/07/24 02:30:09;;;;;;;2.30;2.10;;;22.70;56.70;;;;;;5054268;28;20179;-60
2022/07/24 02:32:35;;;;;;;2.10;2.00;;;22.70;57.30;;;;;;5055306;28;20229;-60
2022/07/24 02:35:00;;;;;;;2.30;2.20;;;22.70;56.70;;;;;;5054974;28;20643;-60
2022/07/24 02:37:26;;;;;;;2.30;2.20;;;22.70;56.80;;;;;;5054347;28;20175;-60
2022/07/24 02:39:51;;;;;;;2.60;2.40;;;22.70;56.80;;;;;;5054825;28;20175;-60
2022/07/24 02:42:17;;;;;;;2.30;2.10;;;22.70;56.80;;;;;;5054808;28;20630;-60
2022/07/24 02:44:42;;;;;;;2.70;2.50;;;22.70;56.70;;;;;;5054195;28;20209;-61
2022/07/24 02:47:08;;;;;;;2.35;2.13;;;22.70;56.80;;;;;;5055137;28;20263;-60
2022/07/24 02:49:33;;;;;;;2.40;2.20;;;22.70;56.80;;;;;;5054873;28;20175;-60
2022/07/24 02:51:59;;;;;;;3.03;2.20;;;22.70;56.80;;;;;;5053892;28;20544;-60
2022/07/24 02:54:24;;;;;;;2.78;2.58;;;22.60;56.80;;;;;;5054673;28;20256;-60
2022/07/24 02:56:50;;;;;;;2.45;2.25;;;22.70;56.80;;;;;;5054577;28;20621;-60
2022/07/24 02:59:15;;;;;;;2.50;2.30;;;22.60;56.90;;;;;;5053999;28;20175;-60
2022/07/24 03:01:41;;;;;;;2.92;2.50;;;22.60;56.90;;;;;;5054499;28;20183;-60
2022/07/24 03:04:06;;;;;;;2.40;2.20;;;22.60;56.80;;;;;;5054555;28;20171;-61
2022/07/24 03:06:32;;;;;;;2.58;2.38;;;22.60;56.80;;;;;;5053879;28;20178;-60
2022/07/24 03:08:57;;;;;;;2.80;2.60;;;22.60;56.80;;;;;;5054410;28;20215;-60
2022/07/24 03:11:23;;;;;;;2.53;2.33;;;22.60;56.90;;;;;;5054630;28;20262;-61
2022/07/24 03:13:48;;;;;;;2.47;2.28;;;22.60;56.90;;;;;;5053649;28;20255;-61
2022/07/24 03:16:15;;;;;;;2.75;2.30;;;22.70;56.90;;;;;;5054371;28;20172;-61
2022/07/24 03:18:45;;;;;;;2.58;2.33;;;22.60;56.90;;;;;;5053989;28;20593;-61
2022/07/24 03:21:14;;;;;;;2.45;2.25;;;22.60;56.90;;;;;;5053654;28;20180;-61
2022/07/24 03:23:39;;;;;;;2.50;2.30;;;22.60;56.90;;;;;;5054267;28;20194;-61
2022/07/24 03:26:05;;;;;;;2.28;2.17;;;22.60;56.90;;;;;;5053546;28;20179;-61
2022/07/24 03:28:30;;;;;;;2.47;2.28;;;22.60;57.00;;;;;;5054202;28;20202;-61
2022/07/24 03:30:56;;;;;;;2.53;2.30;;;22.60;56.90;;;;;;5053845;28;20172;-60
2022/07/24 03:33:21;;;;;;;2.20;2.10;;;22.60;57.00;;;;;;5053182;28;20512;-60
2022/07/24 03:35:47;;;;;;;2.45;2.25;;;22.60;57.00;;;;;;5053876;28;20654;-61
2022/07/24 03:38:12;;;;;;;2.92;2.65;;;22.60;57.00;;;;;;5053801;28;20179;-61
2022/07/24 03:40:38;;;;;;;2.50;2.33;;;22.60;57.00;;;;;;5053117;28;20183;-61
2022/07/24 03:43:03;;;;;;;2.45;2.25;;;22.60;57.00;;;;;;5053203;28;20603;-61
2022/07/24 03:45:29;;;;;;;2.53;2.33;;;22.60;57.00;;;;;;5053892;28;20694;-61
2022/07/24 03:47:54;;;;;;;2.15;2.05;;;22.60;57.00;;;;;;5052879;28;20210;-61
2022/07/24 03:50:20;;;;;;;2.72;2.53;;;22.60;57.00;;;;;;5053595;28;20171;-60
2022/07/24 03:52:45;;;;;;;2.60;2.40;;;22.60;57.00;;;;;;5053354;28;20252;-60
2022/07/24 03:55:11;;;;;;;2.65;2.45;;;22.60;57.00;;;;;;5052620;28;20618;-60
2022/07/24 03:57:36;;;;;;;2.55;2.35;;;22.60;57.00;;;;;;5053709;28;20175;-60
2022/07/24 04:00:04;;;;;;;2.70;2.50;;;22.60;57.20;;;;;;5053282;28;20194;-61
2022/07/24 04:02:29;;;;;;;2.75;2.55;;;22.60;57.00;;;;;;5052628;28;20211;-61
2022/07/24 04:04:55;;;;;;;2.42;2.15;;;22.60;57.00;;;;;;5053171;28;20598;-61
2022/07/24 04:07:20;;;;;;;3.03;2.83;;;22.60;57.00;;;;;;5053136;28;20270;-60
2022/07/24 04:09:46;;;;;;;2.70;2.50;;;22.60;57.00;;;;;;5052681;28;20195;-60
2022/07/24 04:12:11;;;;;;;2.35;2.25;;;22.60;57.00;;;;;;5053324;28;20171;-61
2022/07/24 04:14:37;;;;;;;2.50;2.30;;;22.60;57.10;;;;;;5053189;28;20167;-60
2022/07/24 04:17:02;;;;;;;2.55;2.35;;;22.60;57.10;;;;;;5052659;28;20569;-61
2022/07/24 04:19:28;;;;;;;3.42;2.60;;;22.50;57.00;;;;;;5053328;28;20207;-61
2022/07/24 04:21:53;;;;;;;2.92;2.40;;;22.60;57.00;;;;;;5052967;28;20171;-61
2022/07/24 04:24:19;;;;;;;2.28;2.08;;;22.60;57.10;;;;;;5052732;28;20179;-61
2022/07/24 04:26:44;;;;;;;2.70;2.50;;;22.60;57.00;;;;;;5053141;28;20171;-60
2022/07/24 04:29:10;;;;;;;2.75;2.20;;;22.60;57.10;;;;;;5052732;28;20206;-60
2022/07/24 04:31:35;;;;;;;2.60;2.40;;;22.60;57.00;;;;;;5052430;28;20297;-60
2022/07/24 04:34:01;;;;;;;2.50;2.30;;;22.60;57.10;;;;;;5052941;28;20214;-60
2022/07/24 04:36:26;;;;;;;2.40;2.25;;;22.60;57.00;;;;;;5052189;28;20182;-61
2022/07/24 04:38:52;;;;;;;2.78;2.58;;;22.60;57.10;;;;;;5052927;28;20194;-61
2022/07/24 04:41:17;;;;;;;2.70;2.50;;;22.60;57.10;;;;;;5053095;28;20175;-61
2022/07/24 04:43:43;;;;;;;2.53;2.40;;;22.60;57.10;;;;;;5051992;28;20179;-61
2022/07/24 04:46:09;;;;;;;2.78;2.45;;;22.60;57.10;;;;;;5052773;28;20167;-61
2022/07/24 04:48:35;;;;;;;2.55;2.35;;;22.60;57.00;;;;;;5052760;28;20198;-61
2022/07/24 04:51:00;;;;;;;2.70;2.47;;;22.60;57.10;;;;;;5051787;28;20260;-60
2022/07/24 04:53:26;;;;;;;2.53;2.33;;;22.60;57.00;;;;;;5052541;28;20190;-60
2022/07/24 04:55:51;;;;;;;2.35;2.15;;;22.60;57.00;;;;;;5052311;28;20226;-60
2022/07/24 04:58:17;;;;;;;2.90;2.70;;;22.60;57.10;;;;;;5051971;28;20232;-61
2022/07/24 05:00:42;;;;;;;2.97;2.55;;;22.60;57.00;;;;;;5052476;28;20650;-60
2022/07/24 05:03:08;;;;;;;2.25;2.15;;;22.60;57.10;;;;;;5052588;28;20181;-61
2022/07/24 05:05:33;;;;;;;2.72;2.53;;;22.60;57.00;;;;;;5051899;28;20175;-60
2022/07/24 05:07:59;;;;;;;3.20;2.40;;;22.60;57.00;;;;;;5052565;28;20217;-60
2022/07/24 05:10:24;;;;;;;2.60;2.40;;;22.60;57.00;;;;;;5052578;28;20186;-60
2022/07/24 05:12:50;;;;;;;2.88;2.60;;;22.60;57.10;;;;;;5051742;28;20167;-60
2022/07/24 05:15:15;;;;;;;2.80;2.60;;;22.60;57.00;;;;;;5052526;28;20676;-61
2022/07/24 05:17:41;;;;;;;2.67;2.47;;;22.60;57.00;;;;;;5052368;28;20167;-61
2022/07/24 05:20:07;;;;;;;2.55;2.35;;;22.60;57.00;;;;;;5051714;28;20175;-61
2022/07/24 05:22:32;;;;;;;3.38;2.40;;;22.60;57.10;;;;;;5052540;28;20233;-61
2022/07/24 05:24:58;;;;;;;2.75;2.25;;;22.60;57.00;;;;;;5052208;28;20171;-61
2022/07/24 05:27:23;;;;;;;2.90;2.70;;;22.60;57.10;;;;;;5052012;28;20171;-61
2022/07/24 05:29:49;;;;;;;2.70;2.50;;;22.60;57.00;;;;;;5052114;28;20258;-60
2022/07/24 05:32:14;;;;;;;3.67;2.65;;;22.60;57.10;;;;;;5052136;28;20626;-60
2022/07/24 05:34:40;;;;;;;2.55;2.35;;;22.60;57.10;;;;;;5051523;28;20175;-60
2022/07/24 05:37:05;;;;;;;2.78;2.40;;;22.60;57.10;;;;;;5052412;28;20179;-60
2022/07/24 05:39:31;;;;;;;3.08;2.80;;;22.60;57.20;;;;;;5052097;28;20301;-61
2022/07/24 05:41:56;;;;;;;3.03;2.78;;;22.60;57.10;;;;;;5051657;28;20179;-61
2022/07/24 05:44:22;;;;;;;2.50;2.30;;;22.60;57.10;;;;;;5052222;28;20221;-61
2022/07/24 05:46:47;;;;;;;3.70;2.30;;;22.60;57.20;;;;;;5051349;28;20171;-61
2022/07/24 05:49:13;;;;;;;2.67;2.47;;;22.60;57.10;;;;;;5051963;28;20203;-60
2022/07/24 05:51:38;;;;;;;2.50;2.30;;;22.60;57.10;;;;;;5052198;28;20168;-60
2022/07/24 05:54:04;;;;;;;3.10;2.80;;;22.60;57.10;;;;;;5051273;28;20534;-61
2022/07/24 05:56:30;;;;;;;2.90;2.70;;;22.60;57.20;;;;;;5052259;28;20674;-61
2022/07/24 05:58:55;;;;;;;2.80;2.58;;;22.60;57.10;;;;;;5051806;28;20211;-61
2022/07/24 06:01:21;;;;;;;2.80;2.47;;;22.60;57.10;;;;;;5051103;28;20190;-61
2022/07/24 06:03:46;;;;;;;2.05;1.95;;;22.70;57.20;;;;;;5051849;28;20214;-61
2022/07/24 06:06:12;;;;;;;2.60;2.40;;;22.70;57.10;;;;;;5053935;28;20175;-60
2022/07/24 06:08:37;;;;;;;2.97;2.78;;;22.70;57.10;;;;;;5054774;28;20237;-60
2022/07/24 06:11:03;;;;;;;2.88;2.67;;;22.70;57.10;;;;;;5055400;28;20224;-60
2022/07/24 06:13:28;;;;;;;2.35;2.20;;;22.70;57.20;;;;;;5055548;28;20183;-60
2022/07/24 06:15:54;;;;;;;2.63;2.13;;;22.70;57.10;;;;;;5054510;28;20518;-61
2022/07/24 06:18:19;;;;;;;2.70;2.50;;;22.70;57.10;;;;;;5055311;28;20207;-61
2022/07/24 06:20:45;;;;;;;2.35;2.20;;;22.70;57.10;;;;;;5055084;28;20695;-61
2022/07/24 06:23:10;;;;;;;2.72;2.53;;;22.70;57.10;;;;;;5054715;28;20179;-61
2022/07/24 06:25:36;;;;;;;3.70;2.55;;;22.70;57.10;;;;;;5055438;28;20167;-61
2022/07/24 06:28:01;;;;;;;7.07;6.47;;;22.70;57.10;;;;;;5054829;28;20203;-60
2022/07/24 06:30:27;;;;;;;4.13;3.83;;;22.70;57.20;;;;;;5054619;28;20195;-60
2022/07/24 06:32:55;;;;;;;4.00;3.70;;;22.70;57.50;;;;;;5054911;28;20202;-60
2022/07/24 06:35:21;;;;;;;3.83;3.53;;;22.80;57.40;;;;;;5055131;28;20582;-60
2022/07/24 06:37:46;;;;;;;4.82;4.43;;;22.80;57.50;;;;;;5054565;28;20232;-60
2022/07/24 06:40:12;;;;;;;5.95;4.93;;;22.80;57.70;;;;;;5055079;28;20637;-61
2022/07/24 06:42:37;;;;;;;7.18;6.53;;;22.80;58.10;;;;;;5054732;28;20172;-60
2022/07/24 06:45:03;;;;;;;6.03;5.53;;;22.80;58.80;;;;;;5054370;28;20173;-60
2022/07/24 06:47:29;;;;;;;6.28;5.70;;;22.90;58.70;;;;;;5054790;28;20176;-60
2022/07/24 06:49:54;;;;;;;6.15;5.32;;;22.90;58.40;;;;;;5054373;28;20199;-60
2022/07/24 06:52:20;;;;;;;6.90;5.05;;;22.90;58.40;;;;;;5054080;28;20171;-60
2022/07/24 06:54:46;;;;;;;6.47;5.53;;;22.90;58.30;;;;;;5054345;28;20245;-60
2022/07/24 06:57:11;;;;;;;5.70;5.20;;;22.90;58.20;;;;;;5053833;28;20167;-60
2022/07/24 06:59:37;;;;;;;5.95;5.45;;;22.90;58.20;;;;;;5054651;28;20229;-60
2022/07/24 07:02:02;;;;;;;7.25;5.70;;;22.90;58.30;;;;;;5054299;28;20261;-60
2022/07/24 07:04:28;;;;;;;6.75;6.03;;;22.90;58.40;;;;;;5054055;28;20187;-60
2022/07/24 07:06:53;;;;;;;7.15;6.55;;;22.90;58.50;;;;;;5054534;28;20296;-60
2022/07/24 07:09:19;;;;;;;7.85;6.60;;;22.90;58.50;;;;;;5054436;28;20211;-60
2022/07/24 07:11:44;;;;;;;6.45;5.93;;;22.90;58.50;;;;;;5053444;28;20293;-60
2022/07/24 07:14:10;;;;;;;8.93;6.30;;;22.90;58.50;;;;;;5054339;28;20701;-60
2022/07/24 07:16:35;;;;;;;6.38;5.70;;;22.90;58.60;;;;;;5053574;28;20214;-61
2022/07/24 07:19:01;;;;;;;6.78;6.13;;;22.90;58.60;;;;;;5052805;28;20622;-61
2022/07/24 07:21:26;;;;;;;6.18;5.50;;;23.00;58.60;;;;;;5054079;28;20236;-61
2022/07/24 07:23:52;;;;;;;7.55;5.57;;;23.00;58.60;;;;;;5054058;28;20186;-61
2022/07/24 07:26:18;;;;;;;6.38;5.78;;;23.00;58.60;;;;;;5053506;28;20186;-60
2022/07/24 07:28:43;;;;;;;5.50;5.10;;;23.00;58.40;;;;;;5053808;28;20650;-60
2022/07/24 07:31:09;;;;;;;6.00;5.50;;;23.00;58.40;;;;;;5053843;28;20183;-60
2022/07/24 07:33:34;;;;;;;5.88;5.38;;;23.00;58.90;;;;;;5053510;28;20305;-60
2022/07/24 07:36:00;;;;;;;5.47;5.07;;;23.00;58.30;;;;;;5053918;28;20178;-60
2022/07/24 07:38:25;;;;;;;5.20;4.70;;;23.00;58.20;;;;;;5053767;28;20211;-60
2022/07/24 07:40:51;;;;;;;6.82;5.28;;;23.00;58.10;;;;;;5053180;28;20171;-60
2022/07/24 07:43:16;;;;;;;7.50;5.70;;;23.10;58.10;;;;;;5053667;28;20174;-60
2022/07/24 07:45:42;;;;;;;5.80;5.30;;;23.10;58.10;;;;;;5053471;28;20167;-60
2022/07/24 07:48:07;;;;;;;5.80;5.30;;;23.10;58.10;;;;;;5053022;28;20222;-60
2022/07/24 07:50:33;;;;;;;5.93;5.32;;;23.10;58.00;;;;;;5053738;28;20178;-60
2022/07/24 07:52:58;;;;;;;5.38;4.93;;;23.10;57.90;;;;;;5053389;28;20185;-60
2022/07/24 07:55:24;;;;;;;5.30;4.85;;;23.10;57.90;;;;;;5052898;28;20222;-60
2022/07/24 07:57:49;;;;;;;5.30;4.80;;;23.10;57.90;;;;;;5053255;28;20175;-60
2022/07/24 08:00:16;;;;;;;5.57;5.07;;;23.10;57.80;;;;;;5053197;28;20249;-60
2022/07/24 08:02:41;;;;;;;6.35;5.22;;;23.10;57.80;;;;;;5052561;28;20206;-60
2022/07/24 08:05:07;;;;;;;7.97;5.07;;;23.20;57.90;;;;;;5053307;28;20552;-60
2022/07/24 08:07:33;;;;;;;5.57;5.15;;;23.20;57.80;;;;;;5052800;28;20209;-60
2022/07/24 08:09:59;;;;;;;5.43;4.88;;;23.20;57.90;;;;;;5053227;28;20606;-60
2022/07/24 08:12:24;;;;;;;5.07;4.63;;;23.20;57.80;;;;;;5053266;28;20576;-60
2022/07/24 08:14:50;;;;;;;5.00;4.60;;;23.20;57.80;;;;;;5052209;28;20171;-60
2022/07/24 08:17:15;;;;;;;6.70;4.85;;;23.20;57.70;;;;;;5053071;28;20175;-60
2022/07/24 08:19:41;;;;;;;5.57;5.07;;;23.20;57.60;;;;;;5052914;28;20515;-61
2022/07/24 08:22:07;;;;;;;5.07;4.63;;;23.20;57.60;;;;;;5052483;28;20171;-61
2022/07/24 08:24:33;;;;;;;5.15;4.65;;;23.20;57.50;;;;;;5053104;28;20186;-60
2022/07/24 08:26:58;;;;;;;5.35;4.95;;;23.30;57.50;;;;;;5052955;28;20175;-60
2022/07/24 08:29:24;;;;;;;4.97;4.57;;;23.30;57.70;;;;;;5051846;28;20215;-60
2022/07/24 08:31:50;;;;;;;4.95;4.55;;;23.30;57.40;;;;;;5052694;28;20174;-60
2022/07/24 08:34:16;;;;;;;4.95;4.55;;;23.30;57.50;;;;;;5052838;28;20566;-60
2022/07/24 08:36:45;;;;;;;4.80;4.45;;;23.30;57.50;;;;;;5052468;28;20648;-60
2022/07/24 08:39:14;;;;;;;4.70;4.30;;;23.40;57.50;;;;;;5052949;28;20527;-60
2022/07/24 08:41:40;;;;;;;4.68;4.28;;;23.40;57.40;;;;;;5052375;28;20258;-60
2022/07/24 08:44:06;;;;;;;5.10;4.70;;;23.40;57.40;;;;;;5052163;28;20202;-60
2022/07/24 08:46:32;;;;;;;5.28;4.80;;;23.40;57.40;;;;;;5052994;28;20504;-60
2022/07/24 08:48:57;;;;;;;5.32;4.85;;;23.40;57.30;;;;;;5052421;28;20222;-60
2022/07/24 08:51:23;;;;;;;4.90;4.43;;;23.40;57.30;;;;;;5052222;28;20183;-60
2022/07/24 08:53:49;;;;;;;4.93;4.53;;;23.50;57.40;;;;;;5052402;28;20198;-60
2022/07/24 08:56:15;;;;;;;5.75;5.25;;;23.50;57.30;;;;;;5052047;28;20602;-60
2022/07/24 08:58:41;;;;;;;4.45;4.05;;;23.50;57.20;;;;;;5034254;28;20175;-60
2022/07/24 09:01:07;;;;;;;4.85;4.45;;;23.50;57.20;;;;;;5052503;28;20697;-60
2022/07/24 09:03:43;;;;;;;5.40;4.85;;;23.50;57.30;;;;;;5052541;28;20270;-60
2022/07/24 09:06:09;;;;;;;4.90;4.50;;;23.50;57.20;;;;;;5052644;28;20178;-60
2022/07/24 09:08:35;;;;;;;5.20;4.70;;;23.50;57.30;;;;;;5052733;28;20272;-59
2022/07/24 09:11:04;;;;;;;4.60;4.20;;;23.50;57.20;;;;;;5051512;28;20527;-60
2022/07/24 09:14:29;;;;;;;4.45;4.05;;;23.50;57.30;;;;;;5052479;28;20175;-60
2022/07/24 09:16:24;;;;;;;4.60;4.25;;;23.50;57.20;;;;;;5052159;28;20559;-60
2022/07/24 09:19:04;;;;;;;4.13;3.70;;;23.50;57.20;;;;;;5051844;28;20184;-61
2022/07/24 09:21:32;;;;;;;4.50;4.10;;;23.60;57.20;;;;;;5052327;28;20175;-61
2022/07/24 09:24:02;;;;;;;4.22;3.90;;;23.60;57.20;;;;;;5051981;28;20645;-61
2022/07/24 09:26:52;;;;;;;4.57;4.18;;;23.60;57.10;;;;;;5051793;28;20556;-60
2022/07/24 09:29:18;;;;;;;4.80;4.32;;;23.60;57.10;;;;;;5052297;28;20215;-60
2022/07/24 09:32:00;;;;;;;4.88;4.47;;;23.60;57.10;;;;;;5052000;28;20248;-60
2022/07/24 09:34:27;;;;;;;4.50;4.20;;;23.70;57.00;;;;;;5052282;28;20191;-60
2022/07/24 09:36:57;;;;;;;4.55;4.15;;;23.70;57.10;;;;;;5052270;28;20182;-60
2022/07/24 09:39:27;;;;;;;4.38;4.07;;;23.70;57.10;;;;;;5051421;28;20183;-60
2022/07/24 09:41:53;;;;;;;4.93;4.10;;;23.70;57.00;;;;;;5055107;28;20191;-61
2022/07/24 09:44:19;;;;;;;5.03;4.20;;;23.70;57.10;;;;;;5056014;28;20179;-59
2022/07/24 09:46:48;;;;;;;9.93;4.65;;;23.70;56.90;;;;;;5055082;28;20518;-60
2022/07/24 09:49:20;;;;;;;7.00;4.65;;;23.80;57.20;;;;;;5037913;28;20230;-59
2022/07/24 09:51:49;;;;;;;4.45;3.83;;;23.80;57.10;;;;;;5055507;28;20181;-59
2022/07/24 09:54:14;;;;;;;5.32;3.55;;;24.00;54.80;;;;;;5021302;28;20179;-60
2022/07/24 09:56:40;;;;;;;4.80;3.67;;;24.20;53.50;;;;;;5021219;28;20183;-60
2022/07/24 09:59:07;;;;;;;6.70;4.00;;;24.20;54.00;;;;;;5055399;28;20543;-60
2022/07/24 10:01:32;;;;;;;8.23;4.07;;;24.20;54.40;;;;;;5021786;28;20193;-60
2022/07/24 10:04:00;;;;;;;12.23;4.55;;;24.10;55.00;;;;;;5021563;28;20700;-60
2022/07/24 10:06:26;;;;;;;12.98;4.43;;;24.10;55.50;;;;;;5055777;28;20202;-60
2022/07/24 10:08:52;;;;;;;9.43;4.18;;;24.10;56.00;;;;;;5054979;28;20211;-59
2022/07/24 10:11:17;;;;;;;9.52;4.20;;;24.10;56.00;;;;;;5055479;28;20175;-60
2022/07/24 10:13:43;;;;;;;8.80;4.20;;;24.10;56.10;;;;;;5055069;28;20171;-61
2022/07/24 10:16:12;;;;;;;7.80;4.57;;;24.10;56.10;;;;;;5055120;28;20260;-64
2022/07/24 10:18:40;;;;;;;7.28;4.20;;;24.10;56.50;;;;;;5055343;28;20175;-64
2022/07/24 10:21:08;;;;;;;9.52;4.47;;;24.20;56.70;;;;;;5054637;28;20179;-66
2022/07/24 10:23:46;;;;;;;13.65;4.75;;;24.20;56.80;;;;;;5055463;28;20186;-64
2022/07/24 10:26:12;;;;;;;16.75;4.50;;;24.20;57.00;;;;;;5055263;28;20171;-62
2022/07/24 10:28:40;;;;;;;12.75;4.38;;;24.20;56.80;;;;;;5020319;28;20214;-63
2022/07/24 10:31:07;;;;;;;8.60;4.45;;;24.30;57.10;;;;;;5055356;28;20179;-64
2022/07/24 10:33:33;;;;;;;12.00;4.60;;;24.30;57.20;;;;;;5055134;28;20190;-64
2022/07/24 10:36:00;;;;;;;5.32;4.07;;;24.30;57.00;;;;;;5054450;28;20182;-63
2022/07/24 10:38:32;;;;;;;9.38;4.13;;;24.30;57.10;;;;;;5021068;28;20175;-64
2022/07/24 10:41:02;;;;;;;6.07;4.18;;;24.40;57.10;;;;;;5036867;28;20179;-64
2022/07/24 10:43:27;;;;;;;8.88;4.43;;;24.40;57.10;;;;;;5037290;28;20266;-64
2022/07/24 10:45:56;;;;;;;6.63;4.38;;;24.40;57.50;;;;;;5054801;28;20266;-65
2022/07/24 10:48:22;;;;;;;8.52;4.70;;;24.40;57.60;;;;;;5054607;28;20218;-63
2022/07/24 10:51:05;;;;;;;8.32;4.38;;;24.40;57.70;;;;;;5054309;28;20503;-61
2022/07/24 10:53:45;;;;;;;7.97;4.75;;;24.50;57.70;;;;;;5054847;28;20185;-61
2022/07/24 10:56:24;;;;;;;9.23;4.57;;;24.50;57.50;;;;;;5054127;28;20240;-61
2022/07/24 10:59:00;;;;;;;7.13;4.68;;;24.50;57.80;;;;;;5054671;28;20258;-61
2022/07/24 11:01:29;;;;;;;4.97;4.22;;;24.50;57.70;;;;;;5054528;28;20167;-61
2022/07/24 11:03:55;;;;;;;8.27;4.65;;;24.50;57.20;;;;;;5053707;28;20262;-63
2022/07/24 11:06:39;;;;;;;10.25;4.90;;;24.50;57.40;;;;;;5054607;28;20328;-62
2022/07/24 11:09:04;;;;;;;13.70;4.85;;;24.50;57.40;;;;;;5037164;28;20221;-59
2022/07/24 11:11:30;;;;;;;11.38;4.80;;;24.50;57.40;;;;;;5053984;28;20547;-60
2022/07/24 11:14:02;;;;;;;12.68;4.78;;;24.50;57.40;;;;;;5054111;28;20587;-61
2022/07/24 11:16:33;;;;;;;11.35;4.88;;;24.50;57.40;;;;;;5054274;28;20175;-61
2022/07/24 11:18:59;;;;;;;12.18;4.90;;;24.50;57.40;;;;;;5053714;28;20183;-62
2022/07/24 11:21:42;;;;;;;9.65;4.45;;;24.50;57.40;;;;;;5054174;28;20648;-61
2022/07/24 11:24:13;;;;;;;12.30;4.13;;;24.50;57.40;;;;;;5053986;28;20183;-62
2022/07/24 11:26:51;;;;;;;10.50;4.38;;;24.50;57.40;;;;;;5053416;28;20171;-61
2022/07/24 11:29:17;;;;;;;7.15;4.63;;;24.50;57.30;;;;;;5054243;28;20210;-61
2022/07/24 11:31:45;;;;;;;9.05;4.13;;;24.50;57.30;;;;;;5053192;28;20544;-61
2022/07/24 11:34:10;;;;;;;7.72;4.40;;;24.50;57.30;;;;;;5053910;28;20638;-61
2022/07/24 11:36:36;;;;;;;9.98;4.03;;;24.50;57.30;;;;;;5054217;28;20254;-61
2022/07/24 11:39:03;;;;;;;9.75;4.15;;;24.50;57.20;;;;;;5053017;28;20179;-61
2022/07/24 11:41:41;;;;;;;7.78;4.22;;;24.50;57.10;;;;;;5053932;28;20179;-61
2022/07/24 11:44:07;;;;;;;5.15;3.92;;;24.50;57.20;;;;;;5053676;28;20178;-61
2022/07/24 11:46:36;;;;;;;6.60;3.55;;;24.50;57.10;;;;;;5053327;28;20213;-61
2022/07/24 11:49:05;;;;;;;8.95;4.25;;;24.50;57.10;;;;;;5053693;28;20211;-61
2022/07/24 11:51:31;;;;;;;7.38;3.60;;;24.50;57.00;;;;;;5053665;28;20202;-61
2022/07/24 11:53:57;;;;;;;5.72;3.47;;;24.50;57.00;;;;;;5053038;28;20183;-61
2022/07/24 11:56:22;;;;;;;4.68;3.70;;;24.50;57.00;;;;;;5053413;28;20227;-61
2022/07/24 11:58:48;;;;;;;6.88;3.75;;;24.50;57.00;;;;;;5053263;28;20167;-61
2022/07/24 12:01:23;;;;;;;6.30;3.22;;;24.50;56.90;;;;;;5053041;28;20622;-61
2022/07/24 12:03:52;;;;;;;7.22;3.78;;;24.50;56.90;;;;;;5052839;28;20254;-61
2022/07/24 12:06:20;;;;;;;5.35;3.38;;;24.50;56.90;;;;;;5053126;28;20549;-61
2022/07/24 12:08:46;;;;;;;5.63;3.50;;;24.50;56.90;;;;;;5052803;28;20219;-60
2022/07/24 12:11:13;;;;;;;5.18;3.50;;;24.50;56.80;;;;;;5053497;28;20197;-61
2022/07/24 12:13:42;;;;;;;4.35;3.03;;;24.50;56.80;;;;;;5018488;28;20258;-61
2022/07/24 12:16:08;;;;;;;4.05;3.22;;;24.50;56.80;;;;;;5053325;28;20175;-61
2022/07/24 12:18:33;;;;;;;10.25;3.22;;;24.50;56.80;;;;;;5019214;28;20253;-62
2022/07/24 12:21:00;;;;;;;4.25;3.85;;;24.50;56.80;;;;;;5052209;28;20173;-62
2022/07/24 12:23:25;;;;;;;4.45;3.38;;;24.60;56.80;;;;;;5053359;28;20183;-61
2022/07/24 12:25:51;;;;;;;3.35;3.05;;;24.60;57.40;;;;;;5052977;28;20175;-61
2022/07/24 12:28:18;;;;;;;7.15;3.95;;;24.60;56.70;;;;;;5052578;28;20314;-61
2022/07/24 12:30:48;;;;;;;3.85;3.28;;;24.60;56.60;;;;;;5052947;28;20171;-61
2022/07/24 12:33:26;;;;;;;6.03;3.78;;;24.60;56.70;;;;;;5052594;28;20664;-61
2022/07/24 12:35:57;;;;;;;4.45;3.38;;;24.60;56.60;;;;;;5052559;28;20258;-61
2022/07/24 12:38:33;;;;;;;3.85;3.20;;;24.70;56.50;;;;;;5053020;28;20248;-61
2022/07/24 12:41:05;;;;;;;3.35;3.00;;;24.70;56.40;;;;;;5052654;28;20179;-61
2022/07/24 12:43:31;;;;;;;5.32;3.28;;;24.70;56.40;;;;;;5052324;28;20175;-61